Time;durP1;ratioP1;P1;durP2;ratioP2;P2;SDS_P1;SDS_P2;PMS_P1;PMS_P2;Temp;Humidity;BMP_temperature;BMP_pressure;BME280_temperature;BME280_humidity;BME280_pressure;Samples;Min_cycle;Max_cycle;Signal;HPM_P1;HPM_P2
2022/06/26 10:18:53;;;;;;;11.10;2.13;;;31.20;99.90;;;28.34;85.16;99921.78;904912;22;20500;-74
2022/06/26 10:21:42;;;;;;;13.60;2.72;;;31.30;99.90;;;28.19;82.38;99858.47;4983041;28;20238;-74
2022/06/26 10:24:30;;;;;;;15.82;3.10;;;31.50;99.90;;;28.88;82.25;99933.25;4961962;28;20223;-74
2022/06/26 10:27:31;;;;;;;17.10;3.47;;;31.80;99.90;;;28.36;80.92;99813.75;4957820;28;20215;-74
2022/06/26 10:30:27;;;;;;;10.43;2.15;;;32.30;99.90;;;28.22;81.33;99828.34;4964040;28;20568;-74
2022/06/26 10:33:19;;;;;;;18.60;5.75;;;32.00;99.90;;;30.06;80.00;99990.50;4972847;28;20232;-74
2022/06/26 10:36:25;;;;;;;24.55;12.50;;;32.50;99.90;;;28.02;79.65;99736.53;4966366;28;20212;-75
2022/06/26 10:39:13;;;;;;;63.85;59.65;;;31.60;99.90;;;27.58;80.29;99697.16;4969021;28;20204;-73
2022/06/26 10:45:21;;;;;;;75.65;70.68;;;30.40;99.90;;;27.66;85.63;99769.97;4975130;28;20708;-74
2022/06/26 10:48:21;;;;;;;28.00;23.30;;;29.80;99.90;;;27.08;85.31;99687.19;4958013;28;20208;-77
2022/06/26 10:51:10;;;;;;;97.60;91.55;;;30.00;99.90;;;27.32;83.12;99698.19;4969547;28;20215;-74
2022/06/26 10:53:58;;;;;;;28.52;25.98;;;30.10;99.90;;;27.23;84.09;99706.94;4952771;28;20232;-74
2022/06/26 10:57:09;;;;;;;85.97;80.28;;;29.90;99.90;;;28.25;84.29;99805.53;4970233;28;20217;-74
2022/06/26 10:59:59;;;;;;;51.65;47.83;;;30.50;99.90;;;27.60;81.16;99665.34;4967620;28;20219;-74
2022/06/26 11:02:49;;;;;;;22.08;6.28;;;30.10;99.90;;;27.56;83.77;99704.56;4964019;28;20236;-74
2022/06/26 11:05:37;;;;;;;53.40;49.22;;;30.20;99.90;;;28.11;81.38;99740.41;4966546;28;20232;-74
2022/06/26 11:08:35;;;;;;;19.58;5.82;;;30.80;99.90;;;27.26;81.26;99611.72;4967261;28;20205;-74
2022/06/26 11:11:31;;;;;;;14.98;7.95;;;30.10;99.90;;;27.99;77.65;99676.97;4961462;28;20204;-74
2022/06/26 11:14:20;;;;;;;63.40;59.03;;;30.30;99.90;;;28.98;79.63;99784.56;4967738;28;20224;-74
2022/06/26 11:17:08;;;;;;;182.02;170.90;;;30.90;99.90;;;29.01;78.65;99750.78;4966156;28;20204;-74
2022/06/26 11:23:16;;;;;;;203.80;190.20;;;32.20;99.90;;;29.79;80.05;99791.78;4966807;28;20245;-74
2022/06/26 11:26:14;;;;;;;99.45;92.95;;;36.10;99.90;;;28.08;77.94;99577.56;4966964;28;20216;-74
2022/06/26 11:29:04;;;;;;;84.80;78.97;;;30.00;99.90;;;27.25;78.74;99507.69;4969340;28;20209;-75
2022/06/26 11:31:54;;;;;;;101.75;95.30;;;29.90;99.90;;;28.35;80.31;99671.47;4967465;28;20201;-74
2022/06/26 11:34:54;;;;;;;97.82;91.88;;;29.90;99.90;;;28.13;79.03;99603.41;4966802;28;20228;-74
2022/06/26 11:37:42;;;;;;;82.50;76.50;;;30.20;99.90;;;28.76;78.14;99661.13;4963349;28;20665;-74
2022/06/26 11:40:30;;;;;;;104.25;97.95;;;30.50;99.90;;;29.31;79.41;99717.56;4969890;28;20208;-74
2022/06/26 11:43:20;;;;;;;193.98;182.43;;;;;;;28.85;80.69;99649.56;4968386;28;20248;-74
2022/06/26 11:46:08;;;;;;;150.55;141.77;;;31.00;99.90;;;28.67;80.20;99646.41;4970716;28;20222;-74
2022/06/26 11:48:57;;;;;;;99.07;92.75;;;31.30;99.90;;;28.82;80.45;99657.94;4955889;28;20217;-75
2022/06/26 11:51:46;;;;;;;112.45;105.85;;;31.50;99.90;;;29.20;79.88;99674.84;4959085;28;20205;-76
2022/06/26 11:54:35;;;;;;;181.95;170.63;;;32.00;99.90;;;29.24;77.61;99627.31;4957142;28;20224;-76
2022/06/26 11:57:23;;;;;;;86.20;80.60;;;31.90;99.90;;;28.80;81.50;99636.28;4971546;28;20748;-74
2022/06/26 12:00:13;;;;;;;99.00;93.07;;;30.80;99.90;;;29.62;78.06;99681.41;4968091;28;20205;-74
2022/06/26 12:03:02;;;;;;;170.88;159.70;;;30.90;99.90;;;29.27;75.36;99574.44;4970868;28;20232;-76
2022/06/26 20:38:47;;;;;;;10.88;2.13;;;22.00;99.90;;;22.35;100.00;99642.16;5021000;28;20218;-73
2022/06/26 20:41:35;;;;;;;16.15;3.35;;;22.00;99.90;;;22.32;100.00;99647.72;5016877;28;20207;-75
2022/06/26 20:44:23;;;;;;;12.20;2.45;;;22.00;99.90;;;22.32;100.00;99635.13;5023053;28;20234;-74
2022/06/26 20:47:14;;;;;;;10.98;2.28;;;22.00;99.90;;;22.38;100.00;99652.78;5025132;28;20671;-74
2022/06/26 20:50:03;;;;;;;12.95;2.72;;;22.00;99.90;;;22.38;100.00;99668.94;5009171;28;20211;-74
2022/06/26 20:52:52;;;;;;;15.13;3.03;;;22.00;99.90;;;22.30;100.00;99669.34;5015079;28;20242;-74
2022/06/26 20:55:40;;;;;;;13.95;2.85;;;22.00;99.90;;;22.28;100.00;99684.72;5017798;28;20218;-74
2022/06/26 20:58:28;;;;;;;6.95;1.45;;;22.00;99.90;;;22.33;100.00;99684.47;5021513;28;20214;-73
2022/06/26 21:01:21;;;;;;;14.25;2.88;;;22.00;99.90;;;22.30;100.00;99708.88;5028861;28;20207;-74
2022/06/26 21:04:09;;;;;;;5.45;1.30;;;22.00;99.90;;;22.19;100.00;99743.53;5011132;28;20234;-74
2022/06/26 21:06:58;;;;;;;10.30;2.33;;;22.00;99.90;;;22.12;100.00;99747.50;5010582;28;20232;-76
2022/06/26 21:09:48;;;;;;;12.40;2.75;;;21.90;99.90;;;21.99;100.00;99766.00;5027688;28;20225;-76
2022/06/26 21:12:37;;;;;;;27.65;5.00;;;21.90;99.90;;;21.87;100.00;99774.66;5027175;28;20226;-74
2022/06/26 21:15:26;;;;;;;7.55;1.80;;;21.80;99.90;;;21.76;100.00;99791.31;5027797;28;20211;-74
2022/06/26 21:18:14;;;;;;;7.70;1.77;;;21.70;99.90;;;21.72;100.00;99819.31;5029006;28;20211;-73
2022/06/26 21:21:03;;;;;;;9.70;2.05;;;21.60;99.90;;;21.53;100.00;99821.13;5028330;28;20199;-73
2022/06/26 21:23:51;;;;;;;9.77;2.25;;;21.50;99.90;;;21.44;100.00;99852.00;5021632;28;20238;-73
2022/06/26 21:26:40;;;;;;;11.00;2.65;;;21.40;99.90;;;21.28;100.00;99894.84;5028389;28;20262;-72
2022/06/26 21:29:29;;;;;;;12.43;2.83;;;21.30;99.90;;;21.01;100.00;99918.38;5027331;28;20585;-71
2022/06/26 21:32:19;;;;;;;13.07;2.85;;;21.10;99.90;;;20.83;100.00;99947.81;5028851;28;20222;-71
2022/06/26 21:35:08;;;;;;;15.43;3.42;;;21.00;99.90;;;20.65;100.00;99987.91;5029174;28;20211;-73
2022/06/26 21:37:56;;;;;;;6.30;2.10;;;20.80;99.90;;;20.50;100.00;100006.41;5015100;28;20218;-73
2022/06/26 21:40:44;;;;;;;14.50;3.40;;;20.70;99.90;;;20.41;100.00;100039.88;5022879;28;20216;-72
2022/06/26 21:43:32;;;;;;;11.77;3.35;;;20.60;99.90;;;20.50;100.00;100068.19;5028611;28;20224;-71
2022/06/26 21:46:23;;;;;;;13.35;3.45;;;20.50;99.90;;;20.31;100.00;100100.19;5024923;28;20246;-71
2022/06/26 21:49:12;;;;;;;14.20;3.67;;;20.30;99.90;;;20.29;100.00;100128.91;5019604;28;20211;-70
2022/06/26 21:52:01;;;;;;;9.95;2.50;;;20.30;99.90;;;20.04;100.00;100148.56;5032508;28;20219;-71
2022/06/26 21:54:49;;;;;;;18.48;4.43;;;20.20;99.90;;;19.92;100.00;100173.13;5029056;28;20234;-71
2022/06/26 21:57:39;;;;;;;12.45;2.80;;;20.00;99.90;;;19.83;100.00;100175.25;5017854;28;20215;-71
2022/06/26 22:00:31;;;;;;;9.57;3.00;;;19.90;99.90;;;19.74;100.00;100177.31;5027630;28;20216;-71
2022/06/26 22:03:20;;;;;;;9.60;3.22;;;19.80;99.90;;;19.73;100.00;100178.22;5019155;28;20227;-71
2022/06/26 22:06:09;;;;;;;9.50;3.13;;;19.60;99.90;;;19.60;100.00;100187.59;5028288;28;20230;-72
2022/06/26 22:08:57;;;;;;;814.22;771.53;;;19.50;99.90;;;19.48;100.00;100215.63;5023835;28;20208;-71
2022/06/26 22:11:45;;;;;;;745.60;708.80;;;;;;;19.45;100.00;100242.53;5026539;28;20219;-71
2022/06/26 22:14:39;;;;;;;726.42;688.95;;;19.30;99.90;;;19.39;100.00;100255.25;5029407;28;20234;-72
2022/06/26 22:17:28;;;;;;;697.53;664.08;;;19.30;99.90;;;19.34;100.00;100274.16;5032308;28;20211;-71
2022/06/26 22:20:17;;;;;;;673.60;641.92;;;19.20;99.90;;;19.26;100.00;100269.94;5031837;28;20203;-71
2022/06/26 22:23:05;;;;;;;688.97;655.78;;;19.20;99.90;;;19.30;100.00;100271.63;5026025;28;20616;-71
2022/06/26 22:29:01;;;;;;;663.85;632.42;;;19.20;99.90;;;19.02;100.00;100271.53;5031463;28;20203;-71
2022/06/26 22:31:50;;;;;;;655.30;623.95;;;19.00;99.90;;;19.06;100.00;100278.56;5030104;28;20219;-71
2022/06/26 22:34:38;;;;;;;598.95;571.70;;;19.00;99.90;;;18.89;100.00;100272.78;5025718;28;20571;-72
2022/06/26 22:37:26;;;;;;;566.78;541.35;;;18.90;99.90;;;18.88;100.00;100289.78;5042276;28;20213;-71
2022/06/26 22:40:15;;;;;;;553.70;528.65;;;18.80;99.90;;;18.94;100.00;100295.88;5029735;28;20203;-72
2022/06/26 22:43:03;;;;;;;530.33;506.13;;;18.80;99.90;;;19.01;100.00;100305.50;5007547;28;20215;-71
2022/06/26 22:45:51;;;;;;;504.35;482.70;;;18.80;99.90;;;19.05;100.00;100314.31;5028585;28;20409;-72
2022/06/26 22:48:39;;;;;;;480.75;460.15;;;18.80;99.90;;;19.02;100.00;100312.59;5024751;28;20203;-71
2022/06/26 22:51:27;;;;;;;484.00;463.15;;;18.80;99.90;;;18.97;100.00;100325.25;5030762;28;20230;-72
2022/06/26 22:54:16;;;;;;;432.60;413.88;;;;;;;18.92;100.00;100345.94;5023667;28;20231;-72
2022/06/26 22:57:05;;;;;;;415.75;398.02;;;18.80;99.90;;;18.89;100.00;100364.78;5028632;28;20202;-72
2022/06/26 22:59:54;;;;;;;374.25;358.15;;;18.70;99.90;;;18.96;100.00;100403.00;5028079;28;20199;-72
2022/06/26 23:02:45;;;;;;;384.80;367.13;;;18.70;99.90;;;18.83;100.00;100379.22;5030960;28;20195;-74
2022/06/26 23:05:34;;;;;;;350.60;335.05;;;18.70;99.90;;;18.82;100.00;100381.94;5032137;28;20207;-73
2022/06/26 23:08:23;;;;;;;343.98;329.35;;;18.60;99.90;;;18.86;100.00;100386.28;5029538;28;20211;-74
2022/06/26 23:11:11;;;;;;;352.73;335.88;;;18.60;99.90;;;18.73;100.00;100401.78;5023579;28;20203;-73
2022/06/26 23:13:59;;;;;;;336.55;321.77;;;18.60;99.90;;;18.81;100.00;100415.88;5023490;28;20232;-73
2022/06/26 23:16:47;;;;;;;333.05;318.60;;;18.60;99.90;;;18.77;100.00;100424.03;5028779;28;20211;-73
2022/06/26 23:19:36;;;;;;;327.40;312.70;;;18.60;99.90;;;18.76;100.00;100433.88;5026993;28;20647;-73
2022/06/26 23:22:24;;;;;;;342.25;327.02;;;18.60;99.90;;;18.77;100.00;100437.44;5014486;28;20242;-74
2022/06/26 23:25:12;;;;;;;312.77;299.20;;;18.60;99.90;;;18.71;100.00;100438.47;5022533;28;20203;-73
2022/06/26 23:28:01;;;;;;;293.30;280.75;;;18.60;99.90;;;18.67;100.00;100434.09;5029919;28;20235;-73
2022/06/26 23:30:49;;;;;;;290.70;277.88;;;18.60;99.90;;;18.67;100.00;100449.28;5029448;28;20215;-73
2022/06/26 23:33:38;;;;;;;281.13;269.33;;;18.60;99.90;;;18.64;100.00;100476.16;5021718;28;20235;-72
2022/06/26 23:36:26;;;;;;;277.73;266.05;;;18.60;99.90;;;18.67;100.00;100503.75;5041412;28;20222;-73
2022/06/26 23:39:14;;;;;;;327.15;313.70;;;18.50;99.90;;;18.71;100.00;100517.94;5020032;28;20210;-73
2022/06/26 23:42:03;;;;;;;326.95;313.42;;;18.50;99.90;;;18.63;100.00;100531.50;5028600;28;20214;-73
2022/06/26 23:44:51;;;;;;;326.80;312.95;;;18.50;99.90;;;18.63;100.00;100557.41;5035487;28;20235;-73
2022/06/26 23:47:39;;;;;;;327.80;313.67;;;18.50;99.90;;;18.74;100.00;100572.34;5029265;28;20226;-73
2022/06/26 23:50:28;;;;;;;307.73;294.50;;;18.60;99.90;;;18.73;100.00;100585.75;5024984;28;20207;-74
2022/06/26 23:53:16;;;;;;;303.02;290.65;;;18.60;99.90;;;18.58;100.00;100599.47;5028429;28;20226;-73
2022/06/26 23:56:04;;;;;;;295.70;283.25;;;18.60;99.90;;;18.49;100.00;100598.72;5028509;28;20583;-74
2022/06/26 23:58:53;;;;;;;316.40;302.73;;;18.60;99.90;;;18.48;100.00;100599.66;5011001;28;20216;-73
